Time;durP1;ratioP1;P1;durP2;ratioP2;P2;SDS_P1;SDS_P2;PMS_P1;PMS_P2;Temp;Humidity;BMP_temperature;BMP_pressure;BME280_temperature;BME280_humidity;BME280_pressure;Samples;Min_cycle;Max_cycle;Signal;HPM_P1;HPM_P2
2023/12/10 00:00:45;;;;;;;32.83;12.30;;;;;;;-4.12;100.00;99585.34;5120458;28;20342;-72
2023/12/10 00:03:12;;;;;;;45.53;14.07;;;;;;;-3.90;100.00;99563.78;5122999;28;20116;-64
2023/12/10 00:05:39;;;;;;;12.30;5.75;;;;;;;-4.19;100.00;99556.13;5120586;28;20101;-66
2023/12/10 00:08:05;;;;;;;32.92;12.68;;;;;;;-3.71;100.00;99548.06;5122046;27;20097;-68
2023/12/10 00:10:31;;;;;;;36.17;11.27;;;;;;;-3.95;100.00;99556.53;5121817;28;20051;-64
2023/12/10 00:12:58;;;;;;;42.70;13.18;;;;;;;-3.65;100.00;99553.19;5120563;28;20052;-71
2023/12/10 00:15:24;;;;;;;48.70;13.77;;;;;;;-3.63;100.00;99564.47;5119080;28;20052;-71
2023/12/10 00:17:51;;;;;;;22.50;7.60;;;;;;;-3.96;100.00;99565.66;5116893;28;20428;-65
2023/12/10 00:20:17;;;;;;;32.90;12.38;;;;;;;-4.13;100.00;99565.81;5119332;28;20413;-69
2023/12/10 00:22:45;;;;;;;42.83;16.10;;;;;;;-3.87;100.00;99556.03;5117062;28;20078;-70
2023/12/10 00:25:11;;;;;;;48.35;13.13;;;;;;;-3.90;100.00;99561.94;5119444;28;20082;-71
2023/12/10 00:27:37;;;;;;;34.78;12.00;;;;;;;-4.22;100.00;99537.09;5117288;28;20087;-71
2023/12/10 00:30:05;;;;;;;42.72;12.98;;;;;;;-4.05;100.00;99535.84;5119344;28;20062;-64
2023/12/10 00:32:31;;;;;;;27.40;10.68;;;;;;;-3.98;100.00;99527.59;5116777;28;20055;-68
2023/12/10 00:34:57;;;;;;;37.63;11.88;;;;;;;-3.68;100.00;99518.88;5119353;28;20052;-70
2023/12/10 00:37:24;;;;;;;36.67;12.00;;;;;;;-3.95;100.00;99529.75;5118804;28;20512;-67
2023/12/10 00:39:51;;;;;;;42.15;12.50;;;;;;;-3.91;100.00;99516.63;5116626;28;20418;-65
2023/12/10 00:42:18;;;;;;;33.92;12.15;;;;;;;-3.93;100.00;99529.47;5118931;28;20337;-70
2023/12/10 00:44:45;;;;;;;38.30;13.13;;;;;;;-4.14;100.00;99526.69;5116585;28;20059;-68
2023/12/10 00:47:11;;;;;;;42.42;12.52;;;;;;;-3.72;100.00;99530.41;5118815;28;20384;-63
2023/12/10 00:49:37;;;;;;;38.47;12.95;;;;;;;-4.03;100.00;99536.41;5116744;28;20056;-72
2023/12/10 00:52:04;;;;;;;43.35;13.00;;;;;;;-3.87;100.00;99529.25;5119254;28;20176;-70
2023/12/10 00:54:32;;;;;;;42.60;14.40;;;;;;;-3.71;100.00;99532.00;5116358;28;20121;-72
2023/12/10 00:57:00;;;;;;;43.45;15.27;;;;;;;-3.79;100.00;99526.06;5119152;28;20051;-70
2023/12/10 00:59:26;;;;;;;42.28;13.80;;;;;;;-4.23;100.00;99527.44;5116389;28;20056;-68
2023/12/10 01:01:52;;;;;;;30.65;11.77;;;;;;;-3.98;100.00;99519.56;5118996;28;20414;-65
2023/12/10 01:04:19;;;;;;;37.40;10.98;;;;;;;-3.81;100.00;99517.47;5116227;28;20052;-73
2023/12/10 01:06:47;;;;;;;34.30;12.02;;;;;;;-3.83;100.00;99516.16;5116194;28;20138;-68
2023/12/10 01:09:15;;;;;;;35.03;10.10;;;;;;;-3.99;100.00;99517.16;5118412;28;20060;-67
2023/12/10 01:11:41;;;;;;;42.40;13.77;;;;;;;-3.88;100.00;99510.75;5116140;28;20051;-72
2023/12/10 01:14:08;;;;;;;37.75;13.85;;;;;;;-4.00;100.00;99510.16;5118502;28;20047;-68
2023/12/10 01:16:35;;;;;;;39.08;12.27;;;;;;;-4.05;100.00;99505.59;5116499;28;20447;-64
2023/12/10 01:19:01;;;;;;;30.88;11.38;;;;;;;-3.93;100.00;99513.41;5118388;28;20055;-68
2023/12/10 01:21:28;;;;;;;38.40;12.52;;;;;;;-3.90;100.00;99516.41;5116225;28;20333;-72
2023/12/10 01:23:55;;;;;;;20.05;7.90;;;;;;;-3.91;100.00;99519.31;5118550;28;20066;-65
2023/12/10 01:26:21;;;;;;;45.63;15.23;;;;;;;-3.87;100.00;99523.88;5115593;28;20345;-66
2023/12/10 01:28:48;;;;;;;37.85;13.38;;;;;;;-4.23;100.00;99530.13;5118455;28;20051;-66
2023/12/10 01:31:15;;;;;;;35.35;12.70;;;;;;;-4.05;100.00;99510.94;5115875;28;20059;-71
2023/12/10 01:33:41;;;;;;;26.70;10.50;;;;;;;-3.86;100.00;99503.28;5116606;28;20048;-64
2023/12/10 01:36:08;;;;;;;43.15;15.15;;;;;;;-3.72;100.00;99508.97;5117678;28;20055;-68
2023/12/10 01:38:35;;;;;;;31.55;12.73;;;;;;;-3.66;100.00;99510.59;5115733;28;20182;-68
2023/12/10 01:41:01;;;;;;;24.80;9.43;;;;;;;-4.06;100.00;99528.09;5117989;28;20051;-66
2023/12/10 01:43:28;;;;;;;26.50;10.50;;;;;;;-4.07;100.00;99521.91;5115759;28;20060;-68
2023/12/10 01:45:54;;;;;;;28.30;11.18;;;;;;;-4.09;100.00;99521.38;5118179;28;20316;-72
2023/12/10 01:48:23;;;;;;;36.08;12.15;;;;;;;-3.73;100.00;99520.72;5115654;28;20055;-70
2023/12/10 01:50:50;;;;;;;36.92;12.80;;;;;;;-3.88;100.00;99524.97;5118002;28;20056;-63
2023/12/10 01:53:17;;;;;;;34.70;12.65;;;;;;;-3.77;100.00;99525.81;5115721;28;20085;-64
2023/12/10 01:55:45;;;;;;;24.15;10.02;;;;;;;-3.95;100.00;99529.75;5118380;28;20059;-66
2023/12/10 01:58:11;;;;;;;27.65;11.52;;;;;;;-3.88;100.00;99541.03;5115370;28;20056;-64
2023/12/10 02:00:38;;;;;;;38.00;13.60;;;;;;;-3.72;100.00;99546.47;5117169;28;20059;-71
2023/12/10 02:03:05;;;;;;;27.83;10.32;;;;;;;-3.83;100.00;99546.44;5116980;28;20306;-72
2023/12/10 02:05:32;;;;;;;31.88;11.75;;;;;;;-3.53;100.00;99531.53;5115522;28;20418;-65
2023/12/10 02:07:59;;;;;;;34.47;12.38;;;;;;;-3.80;100.00;99529.84;5117366;28;20077;-72
2023/12/10 02:10:25;;;;;;;30.02;11.15;;;;;;;-3.76;100.00;99526.63;5115186;28;20147;-68
2023/12/10 02:12:52;;;;;;;23.45;10.63;;;;;;;-3.93;100.00;99541.03;5117536;28;20067;-63
2023/12/10 02:15:19;;;;;;;39.13;9.70;;;;;;;-3.80;100.00;99531.69;5115240;28;20048;-68
2023/12/10 02:17:46;;;;;;;33.00;10.88;;;;;;;-3.48;100.00;99544.94;5117933;28;20379;-67
2023/12/10 02:20:14;;;;;;;28.05;11.38;;;;;;;-3.91;100.00;99552.25;5115219;28;20089;-72
2023/12/10 02:22:47;;;;;;;25.02;9.85;;;;;;;-3.59;100.00;99537.94;5117552;28;20220;-68
2023/12/10 02:25:15;;;;;;;22.80;10.25;;;;;;;-3.88;100.00;99550.94;5115015;28;20100;-68
2023/12/10 02:27:42;;;;;;;22.35;10.18;;;;;;;-3.97;100.00;99550.63;5115617;28;20325;-67
2023/12/10 02:30:10;;;;;;;30.52;11.13;;;;;;;-3.53;100.00;99547.63;5116754;28;20055;-68
2023/12/10 02:32:36;;;;;;;23.83;10.23;;;;;;;-3.48;100.00;99544.94;5114980;28;20070;-63
2023/12/10 02:35:03;;;;;;;24.80;9.90;;;;;;;-4.06;100.00;99547.63;5117119;28;20459;-65
2023/12/10 02:37:30;;;;;;;28.30;11.50;;;;;;;-3.68;100.00;99537.63;5114126;28;20417;-65
2023/12/10 02:39:58;;;;;;;24.15;10.35;;;;;;;-3.76;100.00;99540.03;5117140;28;20067;-68
2023/12/10 02:42:24;;;;;;;27.40;10.65;;;;;;;-4.14;100.00;99534.72;5114780;28;20146;-65
2023/12/10 02:44:51;;;;;;;15.60;7.20;;;;;;;-3.92;100.00;99523.88;5117224;28;20047;-73
2023/12/10 02:47:18;;;;;;;28.45;11.35;;;;;;;-3.72;100.00;99525.84;5114856;28;20048;-63
2023/12/10 02:49:44;;;;;;;26.38;10.75;;;;;;;-3.66;100.00;99516.75;5117192;28;20047;-72
2023/12/10 02:52:10;;;;;;;25.30;10.88;;;;;;;-3.43;100.00;99510.13;5114791;28;20056;-71
2023/12/10 02:54:37;;;;;;;21.17;9.52;;;;;;;-4.14;100.00;99517.84;5116533;28;20445;-63
2023/12/10 02:57:04;;;;;;;24.33;9.45;;;;;;;-4.03;100.00;99511.50;5115576;28;20048;-72
2023/12/10 02:59:30;;;;;;;24.55;10.45;;;;;;;-3.50;100.00;99514.09;5114554;28;20331;-64
2023/12/10 03:01:57;;;;;;;19.88;7.85;;;;;;;-3.89;100.00;99509.97;5116601;28;20063;-68
2023/12/10 03:04:23;;;;;;;24.17;9.88;;;;;;;-3.84;100.00;99509.16;5114688;28;20051;-68
2023/12/10 03:06:50;;;;;;;26.42;10.15;;;;;;;-3.74;100.00;99509.22;5117186;28;20059;-65
2023/12/10 03:09:16;;;;;;;29.75;10.77;;;;;;;-3.92;100.00;99507.81;5114637;28;20094;-73
2023/12/10 03:11:42;;;;;;;22.58;8.57;;;;;;;-4.10;100.00;99503.72;5116788;28;20071;-65
2023/12/10 03:14:09;;;;;;;24.30;10.90;;;;;;;-3.92;100.00;99504.31;5114432;28;20375;-66
2023/12/10 03:16:35;;;;;;;23.90;9.02;;;;;;;-3.78;100.00;99497.41;5116902;28;20051;-73
2023/12/10 03:19:02;;;;;;;31.02;13.07;;;;;;;-3.46;100.00;99491.09;5114329;28;20051;-67
2023/12/10 03:21:29;;;;;;;21.83;10.13;;;;;;;-3.86;100.00;99492.56;5116863;28;20449;-68
2023/12/10 03:23:55;;;;;;;23.92;11.38;;;;;;;-3.55;100.00;99498.84;5114241;28;20429;-71
2023/12/10 03:26:21;;;;;;;16.85;6.35;;;;;;;-3.89;100.00;99493.88;5114472;28;20079;-63
2023/12/10 03:28:48;;;;;;;26.17;11.25;;;;;;;-3.82;100.00;99502.50;5116347;28;20495;-72
2023/12/10 03:31:14;;;;;;;31.77;12.10;;;;;;;-3.63;100.00;99491.28;5114383;28;20120;-68
2023/12/10 03:33:40;;;;;;;24.42;10.93;;;;;;;-3.69;100.00;99495.84;5116399;28;20070;-64
2023/12/10 03:36:08;;;;;;;32.80;11.50;;;;;;;-3.70;100.00;99509.47;5114239;28;20328;-68
2023/12/10 03:38:35;;;;;;;24.70;10.30;;;;;;;-3.85;100.00;99491.50;5116445;28;20051;-71
2023/12/10 03:41:02;;;;;;;28.63;9.85;;;;;;;-3.91;100.00;99493.34;5114104;28;20082;-66
2023/12/10 03:43:28;;;;;;;33.63;11.52;;;;;;;-4.11;100.00;99499.41;5116538;28;20413;-68
2023/12/10 03:45:54;;;;;;;18.15;9.43;;;;;;;-4.08;100.00;99490.03;5114068;28;20319;-65
2023/12/10 03:48:21;;;;;;;19.83;9.10;;;;;;;-4.11;100.00;99486.00;5116513;28;20051;-69
2023/12/10 03:50:47;;;;;;;12.60;5.93;;;;;;;-3.73;100.00;99489.41;5117073;28;20345;-72
2023/12/10 03:53:14;;;;;;;22.00;9.05;;;;;;;-3.85;100.00;99486.94;5117984;28;20059;-64
2023/12/10 03:55:41;;;;;;;25.40;9.90;;;;;;;-3.64;100.00;99489.69;5119572;28;20047;-68
2023/12/10 03:58:07;;;;;;;25.98;10.82;;;;;;;-3.53;100.00;99487.84;5117536;28;20106;-73
2023/12/10 04:00:33;;;;;;;25.85;10.57;;;;;;;-3.74;100.00;99493.13;5119751;28;20051;-63
2023/12/10 04:03:00;;;;;;;25.92;11.13;;;;;;;-3.55;100.00;99501.50;5117510;28;20087;-69
2023/12/10 04:05:26;;;;;;;23.15;10.27;;;;;;;-3.77;100.00;99493.66;5120105;28;20347;-72
2023/12/10 04:07:53;;;;;;;20.73;10.20;;;;;;;-3.90;100.00;99510.22;5117336;28;20051;-68
2023/12/10 04:10:20;;;;;;;26.13;10.50;;;;;;;-3.79;100.00;99514.56;5119693;28;20059;-65
2023/12/10 04:12:46;;;;;;;29.75;10.75;;;;;;;-3.52;100.00;99502.88;5117162;28;20051;-71
2023/12/10 04:15:13;;;;;;;17.40;8.05;;;;;;;-3.64;100.00;99516.47;5119414;28;20055;-68
2023/12/10 04:17:39;;;;;;;29.65;9.43;;;;;;;-3.68;100.00;99512.72;5117125;28;20055;-68
2023/12/10 04:20:07;;;;;;;26.20;12.00;;;;;;;-3.87;100.00;99510.50;5119351;28;20070;-65
2023/12/10 04:22:34;;;;;;;21.67;9.07;;;;;;;-4.08;100.00;99509.59;5120145;28;20070;-73
2023/12/10 04:25:00;;;;;;;14.70;7.22;;;;;;;-3.91;100.00;99522.81;5121500;28;20056;-63
2023/12/10 04:27:27;;;;;;;31.35;11.38;;;;;;;-3.61;100.00;99518.63;5124926;28;20056;-65
2023/12/10 04:29:53;;;;;;;37.85;12.68;;;;;;;-3.43;100.00;99523.53;5123286;28;20052;-61
2023/12/10 04:32:20;;;;;;;28.70;11.27;;;;;;;-3.26;100.00;99526.00;5126409;28;20104;-65
2023/12/10 04:34:46;;;;;;;31.15;12.25;;;;;;;-3.49;100.00;99515.75;5118448;28;20051;-65
2023/12/10 04:37:13;;;;;;;31.65;13.25;;;;;;;-3.51;100.00;99516.00;5124747;28;20048;-71
2023/12/10 04:39:39;;;;;;;27.60;12.90;;;;;;;-3.56;100.00;99524.81;5119441;28;20136;-68
2023/12/10 04:42:05;;;;;;;33.65;14.48;;;;;;;-3.50;100.00;99508.75;5120633;28;20070;-65
2023/12/10 04:44:32;;;;;;;31.45;12.10;;;;;;;-3.41;100.00;99509.84;5117077;28;20060;-71
2023/12/10 04:46:59;;;;;;;29.77;12.68;;;;;;;-3.91;100.00;99504.06;5122293;28;20066;-64
2023/12/10 04:49:26;;;;;;;23.08;9.10;;;;;;;-4.12;100.00;99505.03;5119606;28;20125;-68
2023/12/10 04:51:52;;;;;;;27.67;11.27;;;;;;;-3.66;100.00;99515.94;5120019;28;20067;-61
2023/12/10 04:54:18;;;;;;;18.17;8.02;;;;;;;-4.00;100.00;99521.69;5122389;28;20077;-71
2023/12/10 04:56:45;;;;;;;24.17;10.90;;;;;;;-3.94;100.00;99530.56;5119873;28;20402;-71
2023/12/10 04:59:11;;;;;;;26.33;10.13;;;;;;;-4.02;100.00;99535.34;5122048;28;20405;-62
2023/12/10 05:01:38;;;;;;;22.67;9.25;;;;;;;-3.90;100.00;99532.47;5119186;28;20051;-64
2023/12/10 05:04:04;;;;;;;29.75;11.63;;;;;;;-4.03;100.00;99533.75;5119664;28;20129;-64
2023/12/10 05:06:32;;;;;;;27.23;11.82;;;;;;;-3.73;100.00;99550.19;5116322;28;20104;-69
2023/12/10 05:08:59;;;;;;;33.08;12.63;;;;;;;-3.88;100.00;99553.63;5118878;28;20134;-68
2023/12/10 05:11:25;;;;;;;24.50;11.45;;;;;;;-3.76;100.00;99553.44;5116210;28;20052;-65
2023/12/10 05:13:51;;;;;;;23.38;9.65;;;;;;;-4.09;100.00;99552.72;5118699;28;20063;-73
2023/12/10 05:16:18;;;;;;;24.30;7.90;;;;;;;-3.93;100.00;99561.63;5116137;28;20051;-64
2023/12/10 05:18:45;;;;;;;21.20;9.32;;;;;;;-3.98;100.00;99569.63;5116771;28;20109;-68
2023/12/10 05:21:11;;;;;;;18.02;9.10;;;;;;;-3.93;100.00;99565.13;5117833;28;20393;-71
2023/12/10 05:23:37;;;;;;;24.70;9.63;;;;;;;-4.02;100.00;99569.34;5116292;28;20357;-63
2023/12/10 05:26:04;;;;;;;28.83;11.82;;;;;;;-3.72;100.00;99565.22;5118483;28;20336;-72
2023/12/10 05:28:31;;;;;;;23.95;10.93;;;;;;;-3.79;100.00;99565.47;5115952;28;20059;-63
2023/12/10 05:30:57;;;;;;;28.30;11.43;;;;;;;-3.68;100.00;99569.78;5118318;28;20482;-68
2023/12/10 05:33:23;;;;;;;32.40;11.77;;;;;;;-3.47;100.00;99569.88;5115667;28;20055;-73
2023/12/10 05:35:50;;;;;;;24.52;10.18;;;;;;;-3.71;100.00;99561.47;5118351;28;20407;-64
2023/12/10 05:38:17;;;;;;;24.67;10.88;;;;;;;-3.81;100.00;99564.91;5115985;28;20098;-69
2023/12/10 05:40:43;;;;;;;23.77;10.02;;;;;;;-3.36;100.00;99569.66;5118190;28;20055;-71
2023/12/10 05:43:10;;;;;;;22.77;10.43;;;;;;;-3.60;100.00;99558.59;5115417;28;20062;-64
2023/12/10 05:45:36;;;;;;;29.80;11.70;;;;;;;-3.44;100.00;99561.31;5117839;28;20051;-69
2023/12/10 05:48:03;;;;;;;25.25;10.88;;;;;;;-3.85;100.00;99559.25;5116229;28;20051;-73
2023/12/10 05:50:29;;;;;;;24.00;9.52;;;;;;;-3.88;100.00;99556.31;5098869;28;20052;-71
2023/12/10 05:52:56;;;;;;;26.27;10.27;;;;;;;-3.40;100.00;99555.19;5117787;28;20066;-63
2023/12/10 05:55:23;;;;;;;21.55;8.32;;;;;;;-3.98;100.00;99556.25;5115685;28;20047;-72
2023/12/10 05:57:49;;;;;;;23.02;9.90;;;;;;;-3.59;100.00;99559.38;5117623;28;20051;-68
2023/12/10 06:00:16;;;;;;;22.60;9.70;;;;;;;-4.07;100.00;99546.00;5115522;28;20048;-63
2023/12/10 06:02:43;;;;;;;32.65;10.90;;;;;;;-4.09;100.00;99547.34;5117590;28;20059;-73
2023/12/10 06:05:09;;;;;;;20.58;8.30;;;;;;;-4.08;100.00;99539.06;5115407;28;20059;-68
2023/12/10 06:07:36;;;;;;;29.23;11.93;;;;;;;-3.95;100.00;99548.50;5117739;28;20329;-73
2023/12/10 06:10:03;;;;;;;20.80;9.40;;;;;;;-3.89;100.00;99533.28;5115485;28;20065;-64
2023/12/10 06:12:29;;;;;;;29.75;12.63;;;;;;;-4.14;100.00;99531.25;5116936;28;20436;-65
2023/12/10 06:14:56;;;;;;;28.15;11.52;;;;;;;-3.63;100.00;99536.84;5114791;28;20051;-69
2023/12/10 06:17:23;;;;;;;29.30;11.98;;;;;;;-3.58;100.00;99543.03;5115411;28;20136;-63
2023/12/10 06:19:49;;;;;;;26.88;9.55;;;;;;;-3.89;100.00;99552.81;5117160;28;20063;-65
2023/12/10 06:22:15;;;;;;;31.88;13.20;;;;;;;-3.56;100.00;99551.63;5115168;28;20055;-73
2023/12/10 06:24:42;;;;;;;29.42;11.48;;;;;;;-3.52;100.00;99559.16;5117197;28;20048;-64
2023/12/10 06:27:09;;;;;;;26.25;11.65;;;;;;;-3.51;100.00;99558.06;5115107;28;20112;-66
2023/12/10 06:29:35;;;;;;;28.75;11.15;;;;;;;-3.80;100.00;99550.44;5117223;28;20047;-71
2023/12/10 06:32:02;;;;;;;29.58;11.45;;;;;;;-4.02;100.00;99547.94;5115079;28;20082;-65
2023/12/10 06:34:28;;;;;;;23.85;9.23;;;;;;;-3.87;100.00;99550.66;5117350;28;20051;-65
2023/12/10 06:36:55;;;;;;;26.00;11.32;;;;;;;-3.88;100.00;99557.09;5114929;28;20120;-73
2023/12/10 06:39:21;;;;;;;19.60;8.27;;;;;;;-3.86;100.00;99564.91;5117274;28;20056;-73
2023/12/10 06:41:48;;;;;;;27.23;10.65;;;;;;;-3.76;100.00;99566.81;5114613;28;20066;-74
2023/12/10 06:44:21;;;;;;;17.48;5.07;;;;;;;-4.22;100.00;99561.19;5115898;28;20066;-68
2023/12/10 06:46:47;;;;;;;24.80;11.75;;;;;;;-4.10;100.00;99559.09;5100436;28;20082;-63
2023/12/10 06:49:14;;;;;;;26.52;12.32;;;;;;;-3.89;100.00;99554.69;5114571;28;20418;-64
2023/12/10 06:51:40;;;;;;;20.33;9.93;;;;;;;-3.57;100.00;99557.22;5116797;28;20478;-68
2023/12/10 06:54:07;;;;;;;20.90;7.82;;;;;;;-3.80;100.00;99556.63;5114773;28;20349;-72
2023/12/10 06:56:39;;;;;;;17.65;7.75;;;;;;;-3.94;100.00;99555.47;5117044;28;20089;-65
2023/12/10 06:59:06;;;;;;;25.52;12.18;;;;;;;-3.64;100.00;99554.78;5114712;28;20078;-63
2023/12/10 07:01:33;;;;;;;22.73;11.00;;;;;;;-3.46;100.00;99553.53;5116861;28;20105;-64
2023/12/10 07:03:59;;;;;;;31.42;14.18;;;;;;;-3.13;100.00;99541.56;5114597;28;20063;-64
2023/12/10 07:06:26;;;;;;;27.08;10.27;;;;;;;-3.60;100.00;99539.81;5116971;28;20055;-73
2023/12/10 07:08:52;;;;;;;23.52;9.23;;;;;;;-3.24;100.00;99547.16;5114422;28;20058;-71
2023/12/10 07:11:18;;;;;;;23.90;11.20;;;;;;;-3.57;100.00;99536.59;5114697;28;20055;-64
2023/12/10 07:13:45;;;;;;;23.50;10.63;;;;;;;-3.84;100.00;99533.28;5116801;28;20364;-68
2023/12/10 07:16:12;;;;;;;22.30;10.07;;;;;;;-3.57;100.00;99552.69;5114312;28;20066;-69
2023/12/10 07:18:39;;;;;;;26.20;10.50;;;;;;;-3.64;100.00;99557.47;5116718;28;20383;-73
2023/12/10 07:21:06;;;;;;;26.30;10.80;;;;;;;-3.78;100.00;99561.72;5114479;28;20062;-64
2023/12/10 07:23:33;;;;;;;25.30;9.52;;;;;;;-3.68;100.00;99567.09;5116742;28;20120;-64
2023/12/10 07:26:00;;;;;;;23.10;8.98;;;;;;;-3.65;100.00;99563.13;5117801;28;20097;-64
2023/12/10 07:28:26;;;;;;;22.10;9.50;;;;;;;-3.38;100.00;99554.91;5120375;28;20059;-72
2023/12/10 07:30:53;;;;;;;33.83;12.45;;;;;;;-3.06;100.00;99562.78;5117756;28;20055;-69
2023/12/10 07:33:19;;;;;;;30.17;12.85;;;;;;;-3.77;100.00;99536.53;5120303;28;20341;-64
2023/12/10 07:35:46;;;;;;;25.95;11.57;;;;;;;-3.82;100.00;99558.75;5117880;28;20052;-72
2023/12/10 07:38:13;;;;;;;31.38;12.02;;;;;;;-3.58;100.00;99569.03;5119378;28;20048;-68
2023/12/10 07:40:39;;;;;;;33.38;13.05;;;;;;;-3.52;100.00;99559.16;5118667;28;20052;-63
2023/12/10 07:43:05;;;;;;;30.67;11.73;;;;;;;-3.97;100.00;99547.94;5117693;28;20364;-73
2023/12/10 07:45:32;;;;;;;33.10;13.15;;;;;;;-3.36;100.00;99569.66;5119725;28;20059;-69
2023/12/10 07:47:58;;;;;;;29.90;12.50;;;;;;;-3.51;100.00;99550.84;5117630;28;20051;-64
2023/12/10 07:50:25;;;;;;;26.48;10.73;;;;;;;-3.81;100.00;99548.84;5119760;28;20063;-69
2023/12/10 07:52:52;;;;;;;27.50;8.88;;;;;;;-3.65;100.00;99563.13;5117655;28;20082;-71
2023/12/10 07:55:18;;;;;;;24.50;11.43;;;;;;;-3.59;100.00;99562.88;5119799;28;20056;-66
2023/12/10 07:57:45;;;;;;;26.65;11.60;;;;;;;-3.77;100.00;99552.59;5117359;28;20052;-69
2023/12/10 08:00:13;;;;;;;30.27;12.85;;;;;;;-3.41;100.00;99566.16;5119910;28;20413;-65
2023/12/10 08:02:40;;;;;;;25.90;11.95;;;;;;;-4.07;100.00;99558.59;5117509;28;20055;-64
2023/12/10 08:05:06;;;;;;;25.60;11.18;;;;;;;-3.79;100.00;99566.25;5119891;28;20052;-69
2023/12/10 08:07:33;;;;;;;25.25;10.90;;;;;;;-3.52;100.00;99570.66;5119337;28;20056;-65
2023/12/10 08:10:00;;;;;;;29.45;12.60;;;;;;;-3.47;100.00;99570.69;5117103;28;20117;-73
2023/12/10 08:12:26;;;;;;;28.05;12.02;;;;;;;-3.66;100.00;99565.00;5119247;28;20051;-65
2023/12/10 08:14:53;;;;;;;23.77;10.00;;;;;;;-4.07;100.00;99562.06;5117389;28;20112;-66
2023/12/10 08:17:19;;;;;;;26.45;11.43;;;;;;;-3.45;100.00;99559.69;5119433;28;20058;-70
2023/12/10 08:19:45;;;;;;;29.85;11.07;;;;;;;-3.53;100.00;99553.00;5117213;28;20082;-73
2023/12/10 08:22:13;;;;;;;30.25;12.18;;;;;;;-3.55;100.00;99537.16;5119462;28;20052;-64
2023/12/10 08:24:40;;;;;;;28.65;11.50;;;;;;;-3.75;100.00;99544.31;5116891;28;20052;-74
2023/12/10 08:27:07;;;;;;;15.60;9.13;;;;;;;-3.68;100.00;99536.84;5118954;28;20073;-68
2023/12/10 08:29:33;;;;;;;26.83;10.73;;;;;;;-3.42;100.00;99535.06;5116758;28;20047;-69
2023/12/10 08:31:59;;;;;;;20.80;9.27;;;;;;;-3.78;100.00;99521.53;5119459;28;20055;-71
2023/12/10 08:34:26;;;;;;;23.15;9.73;;;;;;;-3.76;100.00;99526.63;5116780;28;20047;-64
2023/12/10 08:36:52;;;;;;;22.42;10.05;;;;;;;-3.24;100.00;99523.81;5115588;28;20401;-69
2023/12/10 08:39:20;;;;;;;27.27;11.77;;;;;;;-3.16;100.00;99511.78;5102378;28;20379;-73
2023/12/10 08:41:46;;;;;;;19.92;9.43;;;;;;;-3.47;100.00;99473.38;5116674;28;20205;-71
2023/12/10 08:44:13;;;;;;;24.48;9.43;;;;;;;-3.82;100.00;99481.06;5118940;28;20198;-65
2023/12/10 08:46:40;;;;;;;30.88;11.75;;;;;;;-3.71;100.00;99494.47;5116719;28;20108;-69
2023/12/10 08:49:06;;;;;;;30.73;12.82;;;;;;;-3.71;100.00;99489.94;5118908;28;20055;-72
2023/12/10 08:51:32;;;;;;;34.95;12.55;;;;;;;-3.10;100.00;99492.75;5116792;28;20056;-64
2023/12/10 08:53:59;;;;;;;26.55;11.70;;;;;;;-3.48;100.00;99440.41;5118933;28;20047;-69
2023/12/10 08:56:26;;;;;;;32.17;11.73;;;;;;;-3.93;100.00;99399.06;5116436;28;20489;-65
2023/12/10 08:58:52;;;;;;;28.48;12.23;;;;;;;-3.15;100.00;99427.59;5118501;28;20059;-70
2023/12/10 09:01:21;;;;;;;30.42;12.98;;;;;;;-3.35;100.00;99398.88;5116659;28;20055;-72
2023/12/10 09:03:47;;;;;;;22.05;10.02;;;;;;;-3.38;100.00;99389.50;5117729;28;20067;-69
2023/12/10 09:06:14;;;;;;;21.25;9.95;;;;;;;-3.92;100.00;99389.94;5118068;28;20136;-67
2023/12/10 09:08:40;;;;;;;22.50;11.00;;;;;;;-3.51;100.00;99434.78;5116252;28;20055;-72
2023/12/10 09:11:07;;;;;;;31.08;12.60;;;;;;;-3.29;100.00;99432.69;5118661;28;20066;-73
2023/12/10 09:13:34;;;;;;;26.60;12.63;;;;;;;-3.09;100.00;99407.75;5116108;28;20055;-71
2023/12/10 09:16:00;;;;;;;10.95;6.80;;;;;;;-3.95;100.00;99377.09;5118539;28;20420;-73
2023/12/10 09:18:27;;;;;;;25.38;10.82;;;;;;;-3.85;100.00;99411.94;5116049;28;20055;-72
2023/12/10 09:20:54;;;;;;;25.83;10.35;;;;;;;-3.70;100.00;99450.53;5118373;28;20397;-69
2023/12/10 09:23:21;;;;;;;20.40;9.90;;;;;;;-3.09;100.00;99450.66;5116057;28;20066;-64
2023/12/10 09:25:47;;;;;;;22.77;9.48;;;;;;;-3.45;100.00;99398.88;5118599;28;20087;-71
2023/12/10 09:28:14;;;;;;;33.35;10.50;;;;;;;-3.51;100.00;99395.38;5116206;28;20051;-71
2023/12/10 09:30:40;;;;;;;24.02;8.70;;;;;;;-3.70;100.00;99392.41;5118308;28;20051;-65
2023/12/10 09:33:07;;;;;;;25.20;10.45;;;;;;;-3.78;100.00;99417.84;5116105;28;20065;-64
2023/12/10 09:35:35;;;;;;;21.08;8.90;;;;;;;-3.67;100.00;99439.28;5099104;28;20051;-73
2023/12/10 09:38:03;;;;;;;22.90;10.73;;;;;;;-3.78;100.00;99428.56;5117969;28;20056;-74
2023/12/10 09:40:31;;;;;;;24.67;10.50;;;;;;;-3.68;100.00;99454.56;5115679;28;20051;-66
2023/12/10 09:42:57;;;;;;;21.38;9.70;;;;;;;-3.39;100.00;99451.44;5118209;28;20120;-66
2023/12/10 09:45:24;;;;;;;20.48;9.98;;;;;;;-3.89;100.00;99439.53;5115631;28;20063;-68
2023/12/10 09:47:50;;;;;;;22.45;10.85;;;;;;;-3.84;100.00;99466.31;5117844;28;20060;-74
2023/12/10 09:50:19;;;;;;;21.50;9.88;;;;;;;-3.26;100.00;99476.94;5115490;28;20056;-72
2023/12/10 09:52:46;;;;;;;18.15;8.52;;;;;;;-3.91;100.00;99433.59;5118261;28;20093;-73
2023/12/10 09:55:12;;;;;;;25.05;11.57;;;;;;;-3.49;100.00;99462.94;5115477;28;20056;-65
2023/12/10 09:57:39;;;;;;;23.15;10.93;;;;;;;-3.79;100.00;99461.78;5117986;28;20058;-70
2023/12/10 10:00:06;;;;;;;21.02;10.13;;;;;;;-3.60;100.00;99451.41;5115981;28;20052;-66
2023/12/10 10:02:33;;;;;;;19.10;8.55;;;;;;;-3.43;100.00;99444.97;5115567;28;20109;-66
2023/12/10 10:05:01;;;;;;;22.67;8.60;;;;;;;-3.49;100.00;99433.44;5117510;28;20124;-66
2023/12/10 10:07:29;;;;;;;19.85;9.43;;;;;;;-3.58;100.00;99424.31;5115802;28;20051;-72
2023/12/10 10:09:56;;;;;;;23.05;10.52;;;;;;;-3.19;100.00;99439.91;5117793;28;20322;-66
2023/12/10 10:12:27;;;;;;;22.77;11.50;;;;;;;-2.93;100.00;99421.94;5115260;28;20059;-72
2023/12/10 10:14:55;;;;;;;16.55;8.82;;;;;;;-3.33;100.00;99354.66;5117639;28;20051;-65
2023/12/10 10:17:26;;;;;;;19.08;9.68;;;;;;;-3.04;100.00;99362.13;5115266;28;20055;-69
2023/12/10 10:19:53;;;;;;;14.63;7.50;;;;;;;-3.18;100.00;99327.00;5117649;28;20055;-64
2023/12/10 10:22:19;;;;;;;15.23;7.60;;;;;;;-3.37;100.00;99309.88;5115004;28;20342;-72
2023/12/10 10:24:46;;;;;;;17.50;9.80;;;;;;;-3.08;100.00;99326.19;5116703;28;20101;-64
2023/12/10 10:27:13;;;;;;;19.95;8.77;;;;;;;-3.20;100.00;99293.50;5116150;28;20052;-71
2023/12/10 10:29:41;;;;;;;15.25;7.10;;;;;;;-2.96;100.00;99265.03;5115188;28;20060;-72
2023/12/10 10:32:14;;;;;;;23.17;8.82;;;;;;;-3.58;100.00;99191.19;5117597;28;20100;-69
2023/12/10 10:34:40;;;;;;;24.48;11.18;;;;;;;-3.15;100.00;99208.47;5115083;28;20351;-69
2023/12/10 10:37:08;;;;;;;18.15;9.13;;;;;;;-3.32;100.00;99205.31;5117147;28;20059;-66
2023/12/10 10:39:34;;;;;;;21.92;9.93;;;;;;;-3.67;100.00;99219.59;5114798;28;20120;-65
2023/12/10 10:42:04;;;;;;;20.58;10.82;;;;;;;-3.60;100.00;99279.06;5117065;28;20063;-66
2023/12/10 10:44:32;;;;;;;19.90;8.23;;;;;;;-3.69;100.00;99307.50;5114596;28;20047;-74
2023/12/10 10:46:59;;;;;;;21.40;9.65;;;;;;;-3.75;100.00;99336.13;5117204;28;20066;-69
2023/12/10 10:49:27;;;;;;;26.70;10.60;;;;;;;-3.32;100.00;99342.84;5114473;28;20120;-65
2023/12/10 10:51:55;;;;;;;28.25;10.45;;;;;;;-2.99;100.00;99337.19;5115141;28;20379;-73
2023/12/10 10:54:22;;;;;;;19.80;9.32;;;;;;;-3.33;100.00;99274.22;5100163;28;20055;-66
2023/12/10 10:56:50;;;;;;;20.05;9.27;;;;;;;-3.43;100.00;99231.38;5114561;28;20051;-66
2023/12/10 10:59:29;;;;;;;18.90;9.40;;;;;;;-3.33;100.00;99238.59;5115941;28;20055;-73
2023/12/10 11:01:59;;;;;;;21.83;9.98;;;;;;;-3.27;100.00;99199.13;5114301;28;20060;-71
2023/12/10 11:04:32;;;;;;;18.08;8.40;;;;;;;-3.44;100.00;99194.09;5116906;28;20059;-68
2023/12/10 11:06:59;;;;;;;18.02;7.35;;;;;;;-3.83;100.00;99168.72;5114823;28;20146;-69
2023/12/10 11:09:28;;;;;;;22.30;9.23;;;;;;;-3.72;100.00;99255.25;5116961;28;20048;-66